KCBM/CBM METAR and TAF weather

Enter ICAO airport designator
Station Type Date Time Source
KCBM METAR 2022/08/13 11:56 UTC NOAA

KCBM 131156Z AUTO 00000KT 10SM CLR 20/19 A3003 RMK AO2 SLP170 T02000190 10236 20196 53013 TSNO $


Station Type Date Time Source
KCBM Decoded METAR 2022/08/13 11:56 UTC NOAA

Columbus Air Force Base, MS, United States (KCBM) 33-39N 088-27W
Aug 13, 2022 - 07:56 AM EDT / 2022.08.13 1156 UTC
Wind: Calm:0
Visibility: 10 mile(s):0
Sky conditions: clear
Temperature: 68.0 F (20.0 C)
Dew Point: 66.2 F (19.0 C)
Relative Humidity: 93%
Pressure (altimeter): 30.03 in. Hg (1016 hPa)
Pressure tendency: 0.04 inches (1.3 hPa) higher than three hours ago
ob: KCBM 131156Z AUTO 00000KT 10SM CLR 20/19 A3003 RMK AO2 SLP170 T02000190 10236 20196 53013 TSNO
cycle: 12

Station Type Date Time Source
KCBM TAF 2022/08/13 00:48 UTC NOAA

TAF TAF
AMD KCBM 130040Z 1300/1323 03008KT 9999 SCT030 QNH2990INS
BECMG 1300/1301 04005KT 9999 FEW050 QNH2990INS
BECMG 1314/1315 VRB03KT 9999 SKC QNH2990INS TX30/1300Z TN21/1311Z LAST NO
AMDS AFT 1300 NEXT 1415

Example: see airport list